createdAt,value
2022-11-16T00:01:28.322Z,99.90
2022-11-16T00:03:58.174Z,99.90
2022-11-16T00:06:27.425Z,99.90
2022-11-16T00:08:58.577Z,99.90
2022-11-16T00:11:26.824Z,99.90
2022-11-16T00:13:55.321Z,99.90
2022-11-16T00:16:24.327Z,99.90
2022-11-16T00:18:57.844Z,99.90
2022-11-16T00:21:27.532Z,99.90
2022-11-16T00:23:55.901Z,99.90
2022-11-16T00:26:24.263Z,99.90
2022-11-16T00:28:58.874Z,99.90
2022-11-16T00:31:34.478Z,99.90
2022-11-16T00:34:03.466Z,99.90
2022-11-16T00:36:32.304Z,99.90
2022-11-16T00:39:00.404Z,99.90
2022-11-16T00:41:30.040Z,99.90
2022-11-16T00:43:58.327Z,99.90
2022-11-16T00:46:26.639Z,99.90
2022-11-16T00:48:55.069Z,99.90
2022-11-16T00:51:23.239Z,99.90
2022-11-16T00:53:51.791Z,99.90
2022-11-16T00:56:20.339Z,99.90
2022-11-16T00:58:48.581Z,99.90
2022-11-16T01:01:17.522Z,99.90
2022-11-16T01:03:46.110Z,99.90
2022-11-16T01:06:16.005Z,99.90
2022-11-16T01:08:45.348Z,99.90
2022-11-16T01:11:18.317Z,99.90
2022-11-16T01:13:46.924Z,99.90
2022-11-16T01:16:17.379Z,99.90
2022-11-16T01:18:49.178Z,99.90
2022-11-16T01:21:17.981Z,99.90
2022-11-16T01:23:46.276Z,99.90
2022-11-16T01:26:14.909Z,99.90
2022-11-16T01:28:43.661Z,99.90
2022-11-16T01:31:13.257Z,99.90
2022-11-16T01:33:42.736Z,99.90
2022-11-16T01:36:30.263Z,99.90
2022-11-16T01:39:01.010Z,99.90
2022-11-16T01:41:34.195Z,99.90
2022-11-16T01:44:34.370Z,99.90
2022-11-16T01:47:11.877Z,99.90
2022-11-16T01:49:44.841Z,99.90
2022-11-16T01:52:17.698Z,99.90
2022-11-16T01:54:49.601Z,99.90
2022-11-16T01:57:26.572Z,99.90
2022-11-16T02:00:08.853Z,99.90
2022-11-16T02:02:51.702Z,99.90
2022-11-16T02:05:52.165Z,99.90
2022-11-16T02:08:21.220Z,99.90
2022-11-16T02:11:15.626Z,99.90
2022-11-16T02:13:59.023Z,99.90
2022-11-16T02:17:04.701Z,99.90
2022-11-16T02:20:15.028Z,99.90
2022-11-16T02:23:04.356Z,99.90
2022-11-16T02:25:54.899Z,99.90
2022-11-16T02:28:53.302Z,99.90
2022-11-16T02:31:28.012Z,99.90
2022-11-16T02:33:59.794Z,99.90
2022-11-16T02:36:28.136Z,99.90
2022-11-16T02:39:05.777Z,99.90
2022-11-16T02:41:41.341Z,99.90
2022-11-16T02:44:18.408Z,99.90
2022-11-16T02:46:50.113Z,99.90
2022-11-16T02:49:21.400Z,99.90
2022-11-16T02:51:51.366Z,99.90
2022-11-16T02:54:23.162Z,99.90
2022-11-16T02:57:05.896Z,99.90
2022-11-16T02:59:42.733Z,99.90
2022-11-16T03:02:42.584Z,99.90
2022-11-16T03:05:34.794Z,99.90
2022-11-16T03:08:29.147Z,99.90
2022-11-16T03:11:10.223Z,99.90
2022-11-16T03:13:39.649Z,99.90
2022-11-16T03:16:32.043Z,99.90
2022-11-16T03:19:02.653Z,99.90
2022-11-16T03:21:52.800Z,99.90
2022-11-16T03:24:21.962Z,99.90
2022-11-16T03:26:53.362Z,99.90
2022-11-16T03:29:31.107Z,99.90
2022-11-16T03:32:30.279Z,99.90
2022-11-16T03:35:05.262Z,99.90
2022-11-16T03:37:35.948Z,99.90
2022-11-16T03:40:06.531Z,99.90
2022-11-16T03:42:36.472Z,99.90
2022-11-16T03:45:05.671Z,99.90
2022-11-16T03:47:34.490Z,99.90
2022-11-16T03:50:05.136Z,99.90
2022-11-16T03:52:33.779Z,99.90
2022-11-16T03:55:02.033Z,99.90
2022-11-16T03:57:30.453Z,99.90
2022-11-16T04:00:00.721Z,99.90
2022-11-16T04:02:30.893Z,99.90
2022-11-16T04:05:00.010Z,99.90
2022-11-16T04:07:28.282Z,99.90
2022-11-16T04:09:56.621Z,99.90
2022-11-16T04:12:24.959Z,99.90
2022-11-16T04:14:53.320Z,99.90
2022-11-16T04:17:25.290Z,99.90
2022-11-16T04:19:57.971Z,99.90
2022-11-16T04:22:46.251Z,99.90
2022-11-16T04:25:25.822Z,99.90
2022-11-16T04:27:55.719Z,99.90
2022-11-16T04:30:24.940Z,99.90
2022-11-16T04:32:53.518Z,99.90
2022-11-16T04:35:22.635Z,99.90
2022-11-16T04:37:51.595Z,99.90
2022-11-16T04:40:26.779Z,99.90
2022-11-16T04:42:56.691Z,99.90
2022-11-16T04:45:25.869Z,99.90
2022-11-16T04:47:54.814Z,99.90
2022-11-16T04:50:28.057Z,99.90
2022-11-16T04:52:56.412Z,99.90
2022-11-16T04:55:24.592Z,99.90
2022-11-16T04:57:54.242Z,99.90
2022-11-16T05:00:23.020Z,99.90
2022-11-16T05:05:18.292Z,99.90
2022-11-16T05:07:49.016Z,99.90
2022-11-16T05:10:23.583Z,99.90
2022-11-16T05:12:53.575Z,99.90
2022-11-16T05:15:22.373Z,99.90
2022-11-16T05:17:50.712Z,99.90
2022-11-16T05:20:22.648Z,99.90
2022-11-16T05:22:58.943Z,99.90
2022-11-16T05:25:36.494Z,99.90
2022-11-16T05:28:08.713Z,99.90
2022-11-16T05:30:41.414Z,99.90
2022-11-16T05:33:10.840Z,99.90
2022-11-16T05:35:42.273Z,99.90
2022-11-16T05:38:10.603Z,99.90
2022-11-16T05:40:43.479Z,99.90
2022-11-16T05:43:11.916Z,99.90
2022-11-16T05:45:48.339Z,99.90
2022-11-16T05:48:17.232Z,99.90
2022-11-16T05:50:45.668Z,99.90
2022-11-16T05:53:26.685Z,99.90
2022-11-16T05:55:54.970Z,99.90
2022-11-16T05:58:24.806Z,99.90
2022-11-16T06:00:53.111Z,99.90
2022-11-16T06:03:21.637Z,99.90
2022-11-16T06:05:50.009Z,99.90
2022-11-16T06:08:18.467Z,99.90
2022-11-16T06:10:47.267Z,99.90
2022-11-16T06:13:15.958Z,99.90
2022-11-16T06:18:26.395Z,99.90
2022-11-16T06:20:55.284Z,99.90
2022-11-16T06:23:23.997Z,99.90
2022-11-16T06:25:55.321Z,99.90
2022-11-16T06:28:26.439Z,99.90
2022-11-16T06:30:55.903Z,99.90
2022-11-16T06:33:33.208Z,99.90
2022-11-16T06:36:05.135Z,99.90
2022-11-16T06:38:34.061Z,99.90
2022-11-16T06:41:03.651Z,99.90
2022-11-16T06:43:37.574Z,99.90
2022-11-16T06:46:06.628Z,99.90
2022-11-16T06:48:35.065Z,99.90
2022-11-16T06:51:07.512Z,99.90
2022-11-16T06:53:54.427Z,99.90
2022-11-16T06:56:23.644Z,99.90
2022-11-16T06:58:56.979Z,99.90
2022-11-16T07:01:27.428Z,99.90
2022-11-16T07:04:01.283Z,99.90
2022-11-16T07:06:31.000Z,99.90
2022-11-16T07:09:00.200Z,99.90
2022-11-16T07:11:31.896Z,99.90
2022-11-16T07:14:00.593Z,99.90
2022-11-16T07:16:30.259Z,99.90
2022-11-16T07:19:01.641Z,99.90
2022-11-16T07:21:32.510Z,99.90
2022-11-16T07:24:03.751Z,99.90
2022-11-16T07:26:37.422Z,99.90
2022-11-16T07:29:16.178Z,99.90
2022-11-16T07:32:03.320Z,99.90
2022-11-16T07:34:51.467Z,99.90
2022-11-16T07:37:19.854Z,99.90
2022-11-16T07:39:48.707Z,99.90
2022-11-16T07:42:17.441Z,99.90
2022-11-16T07:45:06.236Z,99.90
2022-11-16T07:47:39.429Z,99.90
2022-11-16T07:50:11.364Z,99.90
2022-11-16T07:52:39.770Z,99.90
2022-11-16T07:55:11.535Z,99.90
2022-11-16T07:57:40.093Z,99.90
2022-11-16T08:00:10.507Z,99.90
2022-11-16T08:02:57.106Z,99.90
2022-11-16T08:05:26.735Z,99.90
2022-11-16T08:07:55.527Z,99.90
2022-11-16T08:10:26.100Z,99.90
2022-11-16T08:12:55.845Z,99.90
2022-11-16T08:15:26.132Z,99.60
2022-11-16T08:17:54.636Z,96.50
2022-11-16T08:22:23.652Z,95.50
2022-11-16T08:24:52.193Z,93.40
2022-11-16T08:27:20.512Z,92.00
2022-11-16T08:29:53.436Z,89.00
2022-11-16T08:32:22.340Z,84.90
2022-11-16T08:34:50.531Z,82.50
2022-11-16T08:37:18.931Z,82.50
2022-11-16T08:39:48.842Z,82.60
2022-11-16T08:42:17.249Z,81.80
2022-11-16T08:44:48.415Z,80.10
2022-11-16T08:47:19.596Z,78.20
2022-11-16T08:52:39.700Z,79.70
2022-11-16T08:55:08.836Z,90.80
2022-11-16T08:57:38.469Z,94.40
2022-11-16T09:00:11.481Z,98.10
2022-11-16T09:02:39.739Z,97.80
2022-11-16T09:05:08.567Z,99.90
2022-11-16T09:07:36.895Z,99.90
2022-11-16T09:10:05.741Z,99.90
2022-11-16T09:12:35.159Z,99.90
2022-11-16T09:15:04.145Z,99.90
2022-11-16T09:17:32.490Z,99.90
2022-11-16T09:20:00.769Z,99.90
2022-11-16T09:22:28.951Z,99.90
2022-11-16T09:24:57.265Z,99.90
2022-11-16T09:27:25.482Z,99.90
2022-11-16T09:29:53.730Z,99.90
2022-11-16T09:32:21.909Z,99.90
2022-11-16T09:34:50.141Z,99.90
2022-11-16T09:37:18.466Z,99.90
2022-11-16T09:39:46.700Z,99.90
2022-11-16T09:42:46.812Z,99.90
2022-11-16T09:45:27.770Z,99.90
2022-11-16T09:47:59.344Z,99.90
2022-11-16T09:53:38.046Z,99.90
2022-11-16T09:56:11.530Z,99.90
2022-11-16T09:59:00.730Z,99.90
2022-11-16T10:01:43.333Z,99.90
2022-11-16T10:04:58.000Z,99.90
2022-11-16T10:07:44.506Z,99.90
2022-11-16T10:10:17.666Z,99.90
2022-11-16T10:13:12.307Z,99.90
2022-11-16T10:15:49.890Z,99.90
2022-11-16T10:18:29.980Z,99.90
2022-11-16T10:21:09.550Z,99.90
2022-11-16T10:23:59.458Z,99.90
2022-11-16T10:26:44.595Z,99.90
2022-11-16T10:29:37.353Z,99.90
2022-11-16T10:32:18.995Z,99.90
2022-11-16T10:35:13.523Z,99.90
2022-11-16T10:37:47.224Z,99.90
2022-11-16T10:40:20.719Z,99.90
2022-11-16T10:43:01.541Z,99.90
2022-11-16T10:45:46.374Z,99.90
2022-11-16T10:48:43.942Z,99.90
2022-11-16T10:51:12.226Z,99.90
2022-11-16T10:53:42.886Z,99.90
2022-11-16T10:56:17.474Z,99.90
2022-11-16T10:59:05.679Z,99.90
2022-11-16T11:01:40.990Z,99.90
2022-11-16T11:04:29.398Z,99.90
2022-11-16T11:07:00.493Z,99.90
2022-11-16T11:09:34.976Z,99.90
2022-11-16T11:12:18.369Z,99.90
2022-11-16T11:15:11.910Z,99.90
2022-11-16T11:17:47.924Z,99.90
2022-11-16T11:20:16.417Z,99.90
2022-11-16T11:23:01.300Z,99.90
2022-11-16T11:25:41.036Z,99.90
2022-11-16T11:28:26.233Z,99.90
2022-11-16T11:31:26.842Z,99.90
2022-11-16T11:33:58.948Z,99.90
2022-11-16T11:36:40.839Z,99.90
2022-11-16T11:39:11.743Z,99.90
2022-11-16T11:41:43.317Z,99.90
2022-11-16T11:44:14.610Z,99.90
2022-11-16T11:47:55.504Z,99.90
2022-11-16T11:50:13.621Z,99.90
2022-11-16T11:53:00.227Z,99.90
2022-11-16T11:55:28.814Z,99.90
2022-11-16T11:57:58.879Z,99.90
2022-11-16T12:00:27.332Z,99.90
2022-11-16T12:03:13.663Z,99.90
2022-11-16T12:06:09.064Z,99.90
2022-11-16T12:08:46.586Z,99.90
2022-11-16T12:11:44.818Z,99.90
2022-11-16T12:14:40.087Z,99.90
2022-11-16T12:17:19.818Z,99.90
2022-11-16T12:20:03.758Z,99.90
2022-11-16T12:23:04.607Z,99.90
2022-11-16T12:25:57.499Z,99.90
2022-11-16T12:28:34.977Z,99.90
2022-11-16T12:31:18.475Z,99.90
2022-11-16T12:34:00.654Z,99.90
2022-11-16T12:36:50.726Z,99.90
2022-11-16T12:39:36.083Z,99.90
2022-11-16T12:42:18.863Z,99.90
2022-11-16T12:45:20.645Z,99.90
2022-11-16T12:47:52.039Z,99.90
2022-11-16T12:50:20.130Z,99.90
2022-11-16T12:53:17.144Z,99.90
2022-11-16T12:56:05.130Z,99.90
2022-11-16T12:58:36.129Z,99.90
2022-11-16T13:01:07.120Z,99.90
2022-11-16T13:03:48.127Z,99.90
2022-11-16T13:06:27.290Z,99.90
2022-11-16T13:09:27.893Z,99.90
2022-11-16T13:12:01.922Z,99.90
2022-11-16T13:14:38.189Z,99.90
2022-11-16T13:17:07.959Z,99.90
2022-11-16T13:19:44.839Z,99.90
2022-11-16T13:22:22.078Z,99.90
2022-11-16T13:25:14.982Z,99.90
2022-11-16T13:27:46.134Z,99.90
2022-11-16T13:30:25.410Z,99.90
2022-11-16T13:33:08.851Z,99.90
2022-11-16T13:35:39.096Z,99.90
2022-11-16T13:38:13.913Z,99.90
2022-11-16T13:40:42.338Z,99.90
2022-11-16T13:43:10.478Z,99.90
2022-11-16T13:45:43.373Z,99.90
2022-11-16T13:48:28.903Z,99.90
2022-11-16T13:51:01.093Z,99.90
2022-11-16T13:54:42.735Z,99.90
2022-11-16T13:56:29.275Z,99.90
2022-11-16T13:58:59.011Z,99.90
2022-11-16T14:02:24.875Z,99.90
2022-11-16T14:05:02.725Z,99.90
2022-11-16T14:07:30.863Z,99.90
2022-11-16T14:09:59.403Z,99.90
2022-11-16T14:12:52.070Z,99.90
2022-11-16T14:15:21.813Z,99.90
2022-11-16T14:17:56.005Z,99.90
2022-11-16T14:20:55.881Z,99.90
2022-11-16T14:23:36.193Z,99.90
2022-11-16T14:26:20.890Z,99.90
2022-11-16T14:29:10.903Z,99.90
2022-11-16T14:31:53.277Z,99.90
2022-11-16T14:34:42.719Z,99.90
2022-11-16T14:37:36.382Z,99.90
2022-11-16T14:40:19.198Z,99.90
2022-11-16T14:43:14.789Z,99.90
2022-11-16T14:45:39.801Z,99.90
2022-11-16T14:48:20.750Z,99.90
2022-11-16T14:51:06.355Z,99.90
2022-11-16T14:53:37.210Z,99.90
2022-11-16T14:56:12.694Z,99.90
2022-11-16T14:58:50.844Z,99.90
2022-11-16T15:01:21.329Z,99.90
2022-11-16T15:04:07.562Z,99.90
2022-11-16T15:06:52.676Z,99.90
2022-11-16T15:09:31.689Z,99.90
2022-11-16T15:12:02.521Z,99.90
2022-11-16T15:14:33.185Z,99.90
2022-11-16T15:17:01.907Z,99.90
2022-11-16T15:19:31.627Z,99.90
2022-11-16T15:22:04.555Z,99.90
2022-11-16T15:24:35.525Z,99.90
2022-11-16T15:27:13.005Z,99.90
2022-11-16T15:29:41.592Z,99.90
2022-11-16T15:32:17.115Z,99.90
2022-11-16T15:34:54.685Z,99.90
2022-11-16T15:37:30.537Z,99.90
2022-11-16T15:40:00.057Z,99.90
2022-11-16T15:42:29.560Z,99.90
2022-11-16T15:45:12.889Z,99.90
2022-11-16T15:47:44.677Z,99.90
2022-11-16T15:50:23.691Z,99.90
2022-11-16T15:52:54.957Z,99.90
2022-11-16T15:55:29.333Z,99.90
2022-11-16T15:58:02.363Z,99.90
2022-11-16T16:00:33.367Z,99.90
2022-11-16T16:03:18.582Z,99.90
2022-11-16T16:05:47.255Z,99.90
2022-11-16T16:08:36.721Z,99.90
2022-11-16T16:11:19.378Z,99.90
2022-11-16T16:14:04.428Z,99.90
2022-11-16T16:16:39.752Z,99.90
2022-11-16T16:19:44.673Z,99.90
2022-11-16T16:22:37.137Z,99.90
2022-11-16T16:25:07.413Z,99.90
2022-11-16T16:27:40.721Z,99.90
2022-11-16T16:30:13.781Z,99.90
2022-11-16T16:32:42.296Z,99.90
2022-11-16T16:35:18.526Z,99.90
2022-11-16T16:37:49.899Z,99.90
2022-11-16T16:40:19.372Z,99.90
2022-11-16T16:42:47.477Z,99.90
2022-11-16T16:45:26.719Z,99.90
2022-11-16T16:47:54.957Z,99.90
2022-11-16T16:50:23.275Z,99.90
2022-11-16T16:52:51.566Z,99.90
2022-11-16T16:55:19.900Z,99.90
2022-11-16T16:57:48.475Z,99.90
2022-11-16T17:00:17.516Z,99.90
2022-11-16T17:02:45.953Z,99.90
2022-11-16T17:05:14.219Z,99.90
2022-11-16T17:07:42.893Z,99.90
2022-11-16T17:10:11.216Z,99.90
2022-11-16T17:12:39.520Z,99.90
2022-11-16T17:15:08.409Z,99.90
2022-11-16T17:18:42.585Z,99.90
2022-11-16T17:21:11.786Z,99.90
2022-11-16T17:23:40.167Z,99.90
2022-11-16T17:26:09.222Z,99.90
2022-11-16T17:28:37.705Z,99.90
2022-11-16T17:31:08.607Z,99.90
2022-11-16T17:33:38.086Z,99.90
2022-11-16T17:36:07.835Z,99.90
2022-11-16T17:38:36.392Z,99.90
2022-11-16T17:41:10.919Z,99.90
2022-11-16T17:43:40.043Z,99.90
2022-11-16T17:46:09.756Z,99.90
2022-11-16T17:48:39.396Z,99.90
2022-11-16T17:51:07.876Z,99.90
2022-11-16T17:53:37.056Z,99.90
2022-11-16T17:56:06.180Z,99.90
2022-11-16T17:58:34.932Z,99.90
2022-11-16T18:01:03.085Z,99.90
2022-11-16T18:03:31.577Z,99.90
2022-11-16T18:06:11.740Z,99.90
2022-11-16T18:08:41.019Z,99.90
2022-11-16T18:11:12.203Z,99.90
2022-11-16T18:13:41.141Z,99.90
2022-11-16T18:16:15.634Z,99.90
2022-11-16T18:18:45.422Z,99.90
2022-11-16T18:21:20.331Z,99.90
2022-11-16T18:23:49.387Z,99.90
2022-11-16T18:26:19.990Z,99.90
2022-11-16T18:28:49.439Z,99.90
2022-11-16T18:31:20.959Z,99.90
2022-11-16T18:33:49.483Z,99.90
2022-11-16T18:36:19.297Z,99.90
2022-11-16T18:38:47.996Z,99.90
2022-11-16T18:41:23.074Z,99.90
2022-11-16T18:43:51.251Z,99.90
2022-11-16T18:46:20.762Z,99.90
2022-11-16T18:48:49.417Z,99.90
2022-11-16T18:51:18.827Z,99.90
2022-11-16T18:53:47.288Z,99.90
2022-11-16T18:56:16.210Z,99.90
2022-11-16T18:58:52.904Z,99.90
2022-11-16T19:01:25.037Z,99.90
2022-11-16T19:03:54.867Z,99.90
2022-11-16T19:06:24.239Z,99.90
2022-11-16T19:08:57.124Z,99.90
2022-11-16T19:11:26.416Z,99.90
2022-11-16T19:13:57.177Z,99.90
2022-11-16T19:16:26.357Z,99.90
2022-11-16T19:18:54.921Z,99.90
2022-11-16T19:21:23.775Z,99.90
2022-11-16T19:23:56.684Z,99.90
2022-11-16T19:26:27.465Z,99.90
2022-11-16T19:28:56.320Z,99.90
2022-11-16T19:31:29.679Z,99.90
2022-11-16T19:34:03.157Z,99.90
2022-11-16T19:36:32.705Z,99.90
2022-11-16T19:39:01.518Z,99.90
2022-11-16T19:41:30.100Z,99.90
2022-11-16T19:44:02.599Z,99.90
2022-11-16T19:46:33.111Z,99.90
2022-11-16T19:49:01.463Z,99.90
2022-11-16T19:51:32.778Z,99.90
2022-11-16T19:54:02.591Z,99.90
2022-11-16T19:56:31.320Z,99.90
2022-11-16T19:58:59.627Z,99.90
2022-11-16T20:01:29.422Z,99.90
2022-11-16T20:04:00.260Z,99.90
2022-11-16T20:06:29.520Z,99.90
2022-11-16T20:09:00.642Z,99.90
2022-11-16T20:11:31.067Z,99.90
2022-11-16T20:13:59.799Z,99.90
2022-11-16T20:16:35.549Z,99.90
2022-11-16T20:19:08.032Z,99.90
2022-11-16T20:21:39.037Z,99.90
2022-11-16T20:24:12.277Z,99.90
2022-11-16T20:26:45.987Z,99.90
2022-11-16T20:29:16.815Z,99.90
2022-11-16T20:31:45.846Z,99.90
2022-11-16T20:34:16.161Z,99.90
2022-11-16T20:36:46.959Z,99.90
2022-11-16T20:39:17.174Z,99.90
2022-11-16T20:41:45.904Z,99.90
2022-11-16T20:44:16.887Z,99.90
2022-11-16T20:46:45.731Z,99.90
2022-11-16T20:49:14.368Z,99.90
2022-11-16T20:51:42.762Z,99.90
2022-11-16T20:54:10.961Z,99.90
2022-11-16T20:56:39.226Z,99.90
2022-11-16T20:59:07.417Z,99.90
2022-11-16T21:01:35.638Z,99.90
2022-11-16T21:04:05.990Z,99.90
2022-11-16T21:06:34.804Z,99.90
2022-11-16T21:09:02.948Z,99.90
2022-11-16T21:11:33.263Z,99.90
2022-11-16T21:14:01.597Z,99.90
2022-11-16T21:16:48.335Z,99.90
2022-11-16T21:19:17.461Z,99.90
2022-11-16T21:21:45.577Z,99.90
2022-11-16T21:24:13.854Z,99.90
2022-11-16T21:26:42.179Z,99.90
2022-11-16T21:29:10.318Z,99.90
2022-11-16T21:31:38.714Z,99.90
2022-11-16T21:34:07.061Z,99.90
2022-11-16T21:36:35.250Z,99.90
2022-11-16T21:39:03.658Z,99.90
2022-11-16T21:41:31.970Z,99.90
2022-11-16T21:44:00.269Z,99.90
2022-11-16T21:46:28.666Z,99.90
2022-11-16T21:48:57.127Z,99.90
2022-11-16T21:51:27.528Z,99.90
2022-11-16T21:53:55.970Z,99.90
2022-11-16T21:56:26.316Z,99.90
2022-11-16T21:58:55.163Z,99.90
2022-11-16T22:01:24.328Z,99.90
2022-11-16T22:03:52.723Z,99.90
2022-11-16T22:06:21.106Z,99.90
2022-11-16T22:08:49.712Z,99.90
2022-11-16T22:11:18.665Z,99.90
2022-11-16T22:13:46.998Z,99.90
2022-11-16T22:16:16.438Z,99.90
2022-11-16T22:18:45.073Z,99.90
2022-11-16T22:21:13.517Z,99.90
2022-11-16T22:23:41.982Z,99.90
2022-11-16T22:26:12.850Z,99.90
2022-11-16T22:28:41.306Z,99.90
2022-11-16T22:31:18.195Z,99.90
2022-11-16T22:33:46.347Z,99.90
2022-11-16T22:36:14.541Z,99.90
2022-11-16T22:38:42.707Z,99.90
2022-11-16T22:41:10.996Z,99.90
2022-11-16T22:43:39.524Z,99.90
2022-11-16T22:46:07.873Z,99.90
2022-11-16T22:48:40.652Z,99.90
2022-11-16T22:51:15.773Z,99.90
2022-11-16T22:53:44.136Z,99.90
2022-11-16T22:56:13.063Z,99.90
2022-11-16T22:58:41.298Z,99.90
2022-11-16T23:01:10.160Z,99.90
2022-11-16T23:03:38.896Z,99.90
2022-11-16T23:06:07.872Z,99.90
2022-11-16T23:08:37.079Z,99.90
2022-11-16T23:11:06.675Z,99.90
2022-11-16T23:13:35.117Z,99.90
2022-11-16T23:16:11.992Z,99.90
2022-11-16T23:18:40.421Z,99.90
2022-11-16T23:21:09.285Z,99.90
2022-11-16T23:23:37.628Z,99.90
2022-11-16T23:26:12.093Z,99.90
2022-11-16T23:28:40.426Z,99.90
2022-11-16T23:31:08.572Z,99.90
2022-11-16T23:33:36.883Z,99.90
2022-11-16T23:36:05.601Z,99.90
2022-11-16T23:38:33.594Z,99.90
2022-11-16T23:41:01.835Z,99.90
2022-11-16T23:43:30.161Z,99.90
2022-11-16T23:45:58.310Z,99.90
2022-11-16T23:48:26.488Z,99.90
2022-11-16T23:50:54.626Z,99.90
2022-11-16T23:53:22.790Z,99.90
2022-11-16T23:55:50.835Z,99.90
2022-11-16T23:58:19.101Z,99.90
